createdAt,value
2023-01-29T00:00:48.822Z,1.30
2023-01-29T00:01:52.041Z,1.40
2023-01-29T00:02:54.122Z,1.30
2023-01-29T00:03:58.372Z,1.20
2023-01-29T00:05:09.998Z,1.20
2023-01-29T00:06:19.753Z,1.20
2023-01-29T00:07:21.933Z,1.20
2023-01-29T00:08:25.015Z,1.20
2023-01-29T00:09:28.600Z,1.20
2023-01-29T00:10:30.504Z,1.20
2023-01-29T00:11:33.364Z,1.20
2023-01-29T00:12:35.825Z,1.20
2023-01-29T00:13:38.725Z,1.20
2023-01-29T00:14:40.602Z,1.20
2023-01-29T00:15:43.720Z,1.20
2023-01-29T00:16:45.850Z,1.20
2023-01-29T00:17:48.758Z,1.20
2023-01-29T00:18:50.715Z,1.20
2023-01-29T00:19:54.943Z,1.20
2023-01-29T00:20:56.999Z,1.20
2023-01-29T00:22:00.265Z,1.20
2023-01-29T00:23:02.156Z,1.20
2023-01-29T00:24:05.409Z,1.20
2023-01-29T00:25:08.192Z,1.20
2023-01-29T00:26:11.613Z,1.20
2023-01-29T00:27:19.399Z,1.20
2023-01-29T00:28:21.417Z,1.20
2023-01-29T00:29:24.256Z,1.20
2023-01-29T00:30:26.155Z,1.20
2023-01-29T00:31:29.218Z,1.30
2023-01-29T00:32:32.143Z,1.30
2023-01-29T00:33:35.465Z,1.30
2023-01-29T00:34:37.373Z,1.30
2023-01-29T00:35:42.192Z,1.30
2023-01-29T00:36:45.451Z,1.30
2023-01-29T00:37:48.955Z,1.30
2023-01-29T00:38:54.785Z,1.30
2023-01-29T00:39:59.429Z,1.30
2023-01-29T00:41:24.360Z,1.30
2023-01-29T00:42:45.873Z,1.40
2023-01-29T00:44:06.445Z,1.40
2023-01-29T00:45:09.769Z,1.40
2023-01-29T00:46:11.915Z,1.40
2023-01-29T00:47:34.044Z,1.40
2023-01-29T00:48:37.171Z,1.40
2023-01-29T00:49:39.079Z,1.40
2023-01-29T00:50:43.363Z,1.40
2023-01-29T00:52:05.576Z,1.40
2023-01-29T00:53:08.612Z,1.40
2023-01-29T00:54:10.918Z,1.40
2023-01-29T00:55:14.115Z,1.40
2023-01-29T00:56:16.165Z,1.50
2023-01-29T00:57:19.035Z,1.50
2023-01-29T00:58:22.578Z,1.50
2023-01-29T00:59:25.579Z,1.50
2023-01-29T01:00:27.469Z,1.50
2023-01-29T01:01:47.906Z,1.50
2023-01-29T01:03:09.601Z,1.50
2023-01-29T01:04:11.846Z,1.60
2023-01-29T01:05:18.078Z,1.60
2023-01-29T01:06:22.422Z,1.60
2023-01-29T01:07:24.456Z,1.60
2023-01-29T01:08:45.165Z,1.60
2023-01-29T01:10:05.408Z,1.60
2023-01-29T01:11:08.282Z,1.60
2023-01-29T01:12:10.222Z,1.70
2023-01-29T01:13:13.558Z,1.70
2023-01-29T01:14:15.457Z,1.70
2023-01-29T01:15:19.049Z,1.70
2023-01-29T01:16:21.093Z,1.70
2023-01-29T01:17:24.297Z,1.70
2023-01-29T01:18:29.040Z,1.70
2023-01-29T01:19:32.215Z,1.70
2023-01-29T01:20:36.207Z,1.70
2023-01-29T01:21:39.423Z,1.70
2023-01-29T01:22:42.459Z,1.70
2023-01-29T01:23:44.357Z,1.70
2023-01-29T01:24:47.265Z,1.70
2023-01-29T01:25:49.134Z,1.80
2023-01-29T01:26:51.964Z,1.80
2023-01-29T01:27:55.080Z,1.80
2023-01-29T01:28:56.939Z,1.80
2023-01-29T01:29:59.800Z,1.70
2023-01-29T01:31:07.759Z,1.80
2023-01-29T01:32:10.767Z,1.70
2023-01-29T01:33:12.871Z,1.70
2023-01-29T01:34:16.198Z,1.70
2023-01-29T01:35:18.242Z,1.70
2023-01-29T01:36:21.077Z,1.70
2023-01-29T01:37:24.361Z,1.70
2023-01-29T01:38:27.308Z,1.70
2023-01-29T01:39:30.137Z,1.70
2023-01-29T01:40:33.016Z,1.70
2023-01-29T01:41:34.890Z,1.60
2023-01-29T01:42:38.073Z,1.60
2023-01-29T01:43:50.073Z,1.60
2023-01-29T01:44:54.596Z,1.60
2023-01-29T01:45:58.050Z,1.60
2023-01-29T01:47:00.970Z,1.60
2023-01-29T01:48:05.429Z,1.60
2023-01-29T01:49:09.434Z,1.50
2023-01-29T01:50:14.512Z,1.50
2023-01-29T01:51:17.974Z,1.50
2023-01-29T01:52:20.516Z,1.50
2023-01-29T01:53:27.434Z,1.50
2023-01-29T01:54:31.515Z,1.40
2023-01-29T01:55:35.823Z,1.40
2023-01-29T01:56:40.805Z,1.40
2023-01-29T01:57:46.172Z,1.40
2023-01-29T01:58:50.545Z,1.40
2023-01-29T01:59:55.136Z,1.30
2023-01-29T02:00:58.258Z,1.30
2023-01-29T02:02:18.665Z,1.30
2023-01-29T02:03:39.952Z,1.20
2023-01-29T02:05:04.436Z,1.20
2023-01-29T02:06:24.932Z,1.20
2023-01-29T02:07:45.196Z,1.20
2023-01-29T02:09:10.079Z,1.10
2023-01-29T02:10:15.324Z,1.10
2023-01-29T02:11:17.777Z,1.10
2023-01-29T02:12:22.468Z,1.10
2023-01-29T02:13:25.150Z,1.00
2023-01-29T02:14:28.036Z,1.00
2023-01-29T02:15:29.933Z,1.00
2023-01-29T02:16:34.738Z,1.00
2023-01-29T02:17:38.418Z,0.90
2023-01-29T02:18:41.724Z,0.90
2023-01-29T02:19:47.022Z,0.80
2023-01-29T02:20:51.173Z,0.80
2023-01-29T02:22:03.531Z,0.70
2023-01-29T02:23:16.884Z,0.70
2023-01-29T02:24:34.155Z,0.60
2023-01-29T02:25:51.406Z,0.60
2023-01-29T02:27:03.070Z,0.50
2023-01-29T02:28:17.302Z,0.40
2023-01-29T02:29:23.134Z,0.40
2023-01-29T02:30:29.575Z,0.40
2023-01-29T02:31:33.677Z,0.30
2023-01-29T02:32:54.608Z,0.30
2023-01-29T02:34:01.650Z,0.20
2023-01-29T02:35:27.065Z,0.20
2023-01-29T02:36:32.091Z,0.20
2023-01-29T02:37:39.215Z,0.10
2023-01-29T02:38:45.492Z,0.10
2023-01-29T02:39:52.840Z,0.00
2023-01-29T02:40:56.791Z,0.00
2023-01-29T02:42:02.524Z,0.00
2023-01-29T02:43:08.654Z,-0.10
2023-01-29T02:44:17.858Z,-0.20
2023-01-29T02:45:22.993Z,-0.20
2023-01-29T02:46:32.241Z,-0.20
2023-01-29T02:47:36.304Z,-0.30
2023-01-29T02:48:42.327Z,-0.30
2023-01-29T02:49:46.843Z,-0.40
2023-01-29T02:50:51.949Z,-0.40
2023-01-29T02:51:59.312Z,-0.40
2023-01-29T02:53:05.040Z,-0.50
2023-01-29T02:54:08.721Z,-0.50
2023-01-29T02:55:13.921Z,-0.50
2023-01-29T02:56:17.799Z,-0.50
2023-01-29T02:57:21.579Z,-0.50
2023-01-29T02:58:28.389Z,-0.50
2023-01-29T02:59:33.563Z,-0.40
2023-01-29T03:00:38.213Z,-0.50
2023-01-29T03:01:44.137Z,-0.50
2023-01-29T03:02:49.451Z,-0.50
2023-01-29T03:03:53.030Z,-0.50
2023-01-29T03:04:59.373Z,-0.50
2023-01-29T03:06:06.273Z,-0.50
2023-01-29T03:07:22.616Z,-0.60
2023-01-29T03:08:36.852Z,-0.60
2023-01-29T03:09:42.862Z,-0.60
2023-01-29T03:10:47.932Z,-0.70
2023-01-29T03:11:53.615Z,-0.80
2023-01-29T03:13:00.355Z,-0.80
2023-01-29T03:14:04.731Z,-0.80
2023-01-29T03:15:15.944Z,-0.80
2023-01-29T03:16:30.993Z,-0.90
2023-01-29T03:17:35.405Z,-0.90
2023-01-29T03:18:43.642Z,-0.90
2023-01-29T03:19:46.993Z,-1.00
2023-01-29T03:20:59.619Z,-1.00
2023-01-29T03:22:04.188Z,-1.00
2023-01-29T03:23:09.853Z,-1.00
2023-01-29T03:24:32.261Z,-1.00
2023-01-29T03:25:54.036Z,-1.10
2023-01-29T03:27:16.206Z,-1.10
2023-01-29T03:28:38.709Z,-1.10
2023-01-29T03:30:00.990Z,-1.10
2023-01-29T03:31:37.163Z,-1.20
2023-01-29T03:32:40.404Z,-1.20
2023-01-29T03:33:44.695Z,-1.30
2023-01-29T03:34:49.132Z,-1.30
2023-01-29T03:35:53.753Z,-1.30
2023-01-29T03:36:59.110Z,-1.30
2023-01-29T03:38:01.875Z,-1.30
2023-01-29T03:39:05.358Z,-1.40
2023-01-29T03:40:08.992Z,-1.40
2023-01-29T03:41:26.158Z,-1.40
2023-01-29T03:42:30.804Z,-1.40
2023-01-29T03:43:36.579Z,-1.40
2023-01-29T03:44:44.552Z,-1.50
2023-01-29T03:45:59.175Z,-1.50
2023-01-29T03:47:08.857Z,-1.60
2023-01-29T03:48:14.378Z,-1.60
2023-01-29T03:49:19.514Z,-1.60
2023-01-29T03:50:29.498Z,-1.60
2023-01-29T03:51:34.652Z,-1.60
2023-01-29T03:52:41.899Z,-1.60
2023-01-29T03:53:46.369Z,-1.60
2023-01-29T03:54:54.997Z,-1.60
2023-01-29T03:55:59.658Z,-1.60
2023-01-29T03:57:05.190Z,-1.60
2023-01-29T03:58:17.577Z,-1.60
2023-01-29T03:59:28.264Z,-1.60
2023-01-29T04:00:44.678Z,-1.60
2023-01-29T04:01:49.853Z,-1.50
2023-01-29T04:02:58.794Z,-1.50
2023-01-29T04:04:04.429Z,-1.50
2023-01-29T04:05:10.467Z,-1.50
2023-01-29T04:06:25.602Z,-1.50
2023-01-29T04:07:36.661Z,-1.50
2023-01-29T04:08:45.441Z,-1.50
2023-01-29T04:09:50.110Z,-1.50
2023-01-29T04:10:52.965Z,-1.50
2023-01-29T04:11:59.212Z,-1.40
2023-01-29T04:13:04.293Z,-1.40
2023-01-29T04:14:08.051Z,-1.40
2023-01-29T04:15:12.643Z,-1.40
2023-01-29T04:16:18.221Z,-1.40
2023-01-29T04:17:34.376Z,-1.40
2023-01-29T04:18:49.409Z,-1.30
2023-01-29T04:19:56.842Z,-1.30
2023-01-29T04:21:01.406Z,-1.30
2023-01-29T04:22:06.087Z,-1.30
2023-01-29T04:23:20.055Z,-1.30
2023-01-29T04:24:24.082Z,-1.30
2023-01-29T04:25:29.437Z,-1.20
2023-01-29T04:26:38.704Z,-1.20
2023-01-29T04:27:44.908Z,-1.20
2023-01-29T04:28:53.919Z,-1.20
2023-01-29T04:30:05.507Z,-1.20
2023-01-29T04:31:11.907Z,-1.20
2023-01-29T04:32:16.981Z,-1.20
2023-01-29T04:33:25.121Z,-1.10
2023-01-29T04:34:36.668Z,-1.10
2023-01-29T04:35:42.628Z,-1.10
2023-01-29T04:36:51.387Z,-1.10
2023-01-29T04:37:57.536Z,-1.00
2023-01-29T04:39:05.444Z,-1.00
2023-01-29T04:40:14.894Z,-1.00
2023-01-29T04:41:21.427Z,-1.00
2023-01-29T04:42:29.273Z,-1.00
2023-01-29T04:43:35.491Z,-1.00
2023-01-29T04:44:39.938Z,-1.00
2023-01-29T04:45:49.519Z,-0.90
2023-01-29T04:46:53.180Z,-0.90
2023-01-29T04:48:01.646Z,-0.90
2023-01-29T04:49:10.156Z,-0.90
2023-01-29T04:50:16.143Z,-0.90
2023-01-29T04:51:22.129Z,-0.90
2023-01-29T04:52:31.857Z,-0.80
2023-01-29T04:53:37.523Z,-0.80
2023-01-29T04:54:47.485Z,-0.80
2023-01-29T04:55:51.433Z,-0.80
2023-01-29T04:56:58.064Z,-0.80
2023-01-29T04:58:04.550Z,-0.70
2023-01-29T04:59:08.976Z,-0.70
2023-01-29T05:00:13.696Z,-0.70
2023-01-29T05:01:18.056Z,-0.70
2023-01-29T05:02:21.145Z,-0.70
2023-01-29T05:03:25.516Z,-0.70
2023-01-29T05:04:27.631Z,-0.70
2023-01-29T05:05:31.879Z,-0.70
2023-01-29T05:06:35.456Z,-0.60
2023-01-29T05:07:39.575Z,-0.70
2023-01-29T05:08:42.240Z,-0.60
2023-01-29T05:09:46.288Z,-0.60
2023-01-29T05:10:50.034Z,-0.60
2023-01-29T05:11:52.236Z,-0.60
2023-01-29T05:12:57.494Z,-0.60
2023-01-29T05:14:01.210Z,-0.60
2023-01-29T05:15:05.795Z,-0.60
2023-01-29T05:16:10.063Z,-0.60
2023-01-29T05:17:15.715Z,-0.60
2023-01-29T05:18:17.710Z,-0.60
2023-01-29T05:19:20.602Z,-0.50
2023-01-29T05:20:22.492Z,-0.50
2023-01-29T05:21:27.893Z,-0.50
2023-01-29T05:22:30.031Z,-0.50
2023-01-29T05:23:32.963Z,-0.50
2023-01-29T05:24:35.773Z,-0.50
2023-01-29T05:25:38.850Z,-0.50
2023-01-29T05:26:59.922Z,-0.50
2023-01-29T05:28:05.118Z,-0.50
2023-01-29T05:29:07.023Z,-0.50
2023-01-29T05:30:10.421Z,-0.50
2023-01-29T05:31:12.525Z,-0.40
2023-01-29T05:32:16.007Z,-0.40
2023-01-29T05:33:18.740Z,-0.40
2023-01-29T05:34:21.664Z,-0.40
2023-01-29T05:35:23.699Z,-0.40
2023-01-29T05:36:28.105Z,-0.40
2023-01-29T05:37:30.006Z,-0.40
2023-01-29T05:38:32.846Z,-0.40
2023-01-29T05:39:34.736Z,-0.40
2023-01-29T05:40:37.883Z,-0.40
2023-01-29T05:41:40.033Z,-0.40
2023-01-29T05:42:42.893Z,-0.40
2023-01-29T05:43:44.785Z,-0.50
2023-01-29T05:44:47.671Z,-0.40
2023-01-29T05:45:53.715Z,-0.50
2023-01-29T05:46:56.706Z,-0.50
2023-01-29T05:47:58.779Z,-0.50
2023-01-29T05:49:01.625Z,-0.50
2023-01-29T05:50:03.752Z,-0.50
2023-01-29T05:51:06.769Z,-0.50
2023-01-29T05:52:10.027Z,-0.60
2023-01-29T05:53:12.887Z,-0.60
2023-01-29T05:54:14.983Z,-0.60
2023-01-29T05:55:17.967Z,-0.60
2023-01-29T05:56:19.969Z,-0.60
2023-01-29T05:57:23.031Z,-0.60
2023-01-29T05:58:25.399Z,-0.60
2023-01-29T05:59:31.087Z,-0.60
2023-01-29T06:00:32.977Z,-0.60
2023-01-29T06:01:35.879Z,-0.60
2023-01-29T06:02:37.853Z,-0.60
2023-01-29T06:03:40.914Z,-0.60
2023-01-29T06:04:42.815Z,-0.60
2023-01-29T06:05:45.829Z,-0.60
2023-01-29T06:06:47.710Z,-0.60
2023-01-29T06:07:51.933Z,-0.60
2023-01-29T06:08:53.851Z,-0.60
2023-01-29T06:09:56.749Z,-0.60
2023-01-29T06:10:58.715Z,-0.60
2023-01-29T06:12:01.646Z,-0.60
2023-01-29T06:13:03.851Z,-0.70
2023-01-29T06:14:07.200Z,-0.70
2023-01-29T06:15:09.539Z,-0.70
2023-01-29T06:16:13.205Z,-0.70
2023-01-29T06:17:15.265Z,-0.70
2023-01-29T06:18:18.586Z,-0.80
2023-01-29T06:19:20.736Z,-0.80
2023-01-29T06:20:23.620Z,-0.80
2023-01-29T06:21:25.592Z,-0.90
2023-01-29T06:22:28.865Z,-0.90
2023-01-29T06:23:32.313Z,-0.90
2023-01-29T06:24:35.160Z,-1.00
2023-01-29T06:25:37.352Z,-1.00
2023-01-29T06:26:40.247Z,-1.00
2023-01-29T06:27:42.126Z,-1.10
2023-01-29T06:28:46.010Z,-1.10
2023-01-29T06:29:48.036Z,-1.20
2023-01-29T06:30:51.186Z,-1.20
2023-01-29T06:31:54.212Z,-1.30
2023-01-29T06:32:56.436Z,-1.40
2023-01-29T06:33:59.362Z,-1.40
2023-01-29T06:35:01.231Z,-1.40
2023-01-29T06:36:05.083Z,-1.50
2023-01-29T06:37:07.890Z,-1.60
2023-01-29T06:38:10.849Z,-1.70
2023-01-29T06:39:14.086Z,-1.70
2023-01-29T06:40:17.498Z,-1.70
2023-01-29T06:41:22.738Z,-1.80
2023-01-29T06:42:28.032Z,-1.80
2023-01-29T06:43:30.065Z,-1.80
2023-01-29T06:44:32.955Z,-1.80
2023-01-29T06:45:35.162Z,-1.80
2023-01-29T06:46:38.181Z,-1.80
2023-01-29T06:47:40.427Z,-1.80
2023-01-29T06:48:43.311Z,-1.90
2023-01-29T06:49:45.229Z,-1.90
2023-01-29T06:50:49.401Z,-1.90
2023-01-29T06:51:52.360Z,-2.00
2023-01-29T06:52:54.249Z,-2.00
2023-01-29T06:53:57.132Z,-2.00
2023-01-29T06:55:00.427Z,-2.00
2023-01-29T06:56:03.402Z,-2.00
2023-01-29T06:57:05.475Z,-2.00
2023-01-29T06:58:08.484Z,-2.10
2023-01-29T06:59:10.787Z,-2.10
2023-01-29T07:00:14.536Z,-2.10
2023-01-29T07:01:33.477Z,-2.10
2023-01-29T07:02:38.549Z,-2.10
2023-01-29T07:03:41.533Z,-2.10
2023-01-29T07:04:44.412Z,-2.10
2023-01-29T07:05:50.385Z,-2.10
2023-01-29T07:06:53.207Z,-2.10
2023-01-29T07:07:55.158Z,-2.10
2023-01-29T07:08:58.025Z,-2.10
2023-01-29T07:10:01.276Z,-2.20
2023-01-29T07:11:04.726Z,-2.20
2023-01-29T07:12:08.168Z,-2.20
2023-01-29T07:13:10.036Z,-2.20
2023-01-29T07:14:12.951Z,-2.20
2023-01-29T07:15:15.048Z,-2.20
2023-01-29T07:16:19.177Z,-2.20
2023-01-29T07:17:22.148Z,-2.20
2023-01-29T07:18:24.157Z,-2.20
2023-01-29T07:19:27.172Z,-2.20
2023-01-29T07:20:30.161Z,-2.30
2023-01-29T07:21:33.120Z,-2.30
2023-01-29T07:22:35.001Z,-2.30
2023-01-29T07:23:38.338Z,-2.30
2023-01-29T07:24:40.245Z,-2.30
2023-01-29T07:25:44.637Z,-2.30
2023-01-29T07:26:46.577Z,-2.20
2023-01-29T07:27:49.708Z,-2.20
2023-01-29T07:28:51.665Z,-2.20
2023-01-29T07:29:54.492Z,-2.10
2023-01-29T07:30:57.160Z,-2.00
2023-01-29T07:32:00.294Z,-1.90
2023-01-29T07:33:04.087Z,-1.80
2023-01-29T07:34:07.625Z,-1.70
2023-01-29T07:35:09.848Z,-1.60
2023-01-29T07:36:13.239Z,-1.50
2023-01-29T07:37:15.102Z,-1.40
2023-01-29T07:38:18.108Z,-1.30
2023-01-29T07:39:19.981Z,-1.20
2023-01-29T07:40:22.843Z,-1.10
2023-01-29T07:41:27.261Z,-1.00
2023-01-29T07:42:29.876Z,-1.00
2023-01-29T07:43:32.826Z,-0.90
2023-01-29T07:44:34.878Z,-0.80
2023-01-29T07:45:38.798Z,-0.80
2023-01-29T07:46:40.707Z,-0.70
2023-01-29T07:47:43.570Z,-0.60
2023-01-29T07:48:45.445Z,-0.60
2023-01-29T07:49:48.387Z,-0.50
2023-01-29T07:50:54.217Z,-0.50
2023-01-29T07:51:57.221Z,-0.50
2023-01-29T07:52:59.208Z,-0.40
2023-01-29T07:54:02.062Z,-0.40
2023-01-29T07:55:04.124Z,-0.30
2023-01-29T07:56:07.350Z,-0.30
2023-01-29T07:57:10.580Z,-0.30
2023-01-29T07:58:13.764Z,-0.20
2023-01-29T07:59:17.111Z,-0.20
2023-01-29T08:00:19.542Z,-0.20
2023-01-29T08:01:22.548Z,-0.10
2023-01-29T08:02:24.526Z,-0.10
2023-01-29T08:03:27.775Z,-0.10
2023-01-29T08:04:29.774Z,-0.10
2023-01-29T08:05:33.060Z,0.00
2023-01-29T08:06:35.003Z,0.00
2023-01-29T08:07:37.938Z,0.00
2023-01-29T08:08:39.893Z,0.10
2023-01-29T08:09:42.853Z,0.10
2023-01-29T08:10:45.759Z,0.20
2023-01-29T08:11:47.773Z,0.20
2023-01-29T08:12:55.822Z,0.30
2023-01-29T08:13:58.754Z,0.40
2023-01-29T08:15:00.695Z,0.50
2023-01-29T08:16:04.093Z,0.60
2023-01-29T08:17:06.185Z,0.70
2023-01-29T08:18:09.778Z,0.80
2023-01-29T08:19:11.808Z,0.90
2023-01-29T08:20:14.764Z,0.90
2023-01-29T08:21:17.710Z,1.00
2023-01-29T08:22:19.769Z,1.10
2023-01-29T08:23:22.778Z,1.10
2023-01-29T08:24:31.246Z,1.30
2023-01-29T08:25:44.760Z,1.40
2023-01-29T08:26:46.805Z,1.50
2023-01-29T08:27:49.814Z,1.60
2023-01-29T08:28:53.237Z,1.70
2023-01-29T08:29:56.055Z,1.80
2023-01-29T08:30:58.643Z,1.90
2023-01-29T08:32:01.717Z,2.00
2023-01-29T08:33:05.329Z,2.00
2023-01-29T08:34:08.202Z,2.10
2023-01-29T08:35:11.167Z,2.20
2023-01-29T08:36:14.033Z,2.20
2023-01-29T08:37:17.087Z,2.30
2023-01-29T08:38:19.995Z,2.30
2023-01-29T08:39:21.933Z,2.30
2023-01-29T08:40:24.804Z,2.40
2023-01-29T08:41:27.055Z,2.40
2023-01-29T08:42:29.987Z,2.40
2023-01-29T08:43:32.096Z,2.40
2023-01-29T08:44:36.325Z,2.40
2023-01-29T08:45:39.138Z,2.40
2023-01-29T08:46:42.054Z,2.50
2023-01-29T08:47:47.168Z,2.50
2023-01-29T08:48:50.020Z,2.50
2023-01-29T08:49:51.923Z,2.50
2023-01-29T08:50:57.815Z,2.40
2023-01-29T08:52:01.699Z,2.40
2023-01-29T08:53:07.797Z,2.40
2023-01-29T08:54:10.923Z,2.40
2023-01-29T08:55:13.037Z,2.40
2023-01-29T08:56:16.358Z,2.40
2023-01-29T08:57:19.458Z,2.30
2023-01-29T08:58:21.482Z,2.30
2023-01-29T08:59:24.334Z,2.10
2023-01-29T09:00:27.622Z,2.10
2023-01-29T09:01:30.480Z,2.00
2023-01-29T09:02:32.647Z,2.00
2023-01-29T09:03:35.680Z,2.00
2023-01-29T09:04:38.583Z,2.00
2023-01-29T09:05:40.998Z,2.00
2023-01-29T09:06:43.858Z,2.00
2023-01-29T09:07:45.752Z,2.10
2023-01-29T09:08:49.788Z,2.10
2023-01-29T09:09:51.791Z,2.20
2023-01-29T09:10:54.729Z,2.20
2023-01-29T09:11:56.623Z,2.20
2023-01-29T09:12:59.957Z,2.20
2023-01-29T09:14:01.845Z,2.20
2023-01-29T09:15:05.033Z,2.10
2023-01-29T09:16:10.362Z,2.10
2023-01-29T09:17:12.286Z,2.20
2023-01-29T09:18:15.282Z,2.10
2023-01-29T09:19:18.119Z,2.20
2023-01-29T09:20:20.058Z,2.20
2023-01-29T09:21:23.177Z,2.10
2023-01-29T09:22:25.269Z,2.00
2023-01-29T09:23:28.175Z,2.10
2023-01-29T09:24:30.145Z,2.10
2023-01-29T09:25:32.996Z,2.20
2023-01-29T09:26:36.562Z,2.20
2023-01-29T09:27:38.473Z,2.30
2023-01-29T09:28:41.385Z,2.30
2023-01-29T09:29:43.354Z,2.40
2023-01-29T09:30:46.268Z,2.40
2023-01-29T09:31:50.634Z,2.40
2023-01-29T09:32:54.122Z,2.30
2023-01-29T09:33:57.563Z,2.20
2023-01-29T09:35:00.508Z,2.40
2023-01-29T09:36:03.733Z,2.40
2023-01-29T09:37:05.652Z,2.40
2023-01-29T09:38:08.536Z,2.50
2023-01-29T09:39:10.519Z,2.50
2023-01-29T09:40:18.311Z,2.60
2023-01-29T09:41:28.782Z,2.60
2023-01-29T09:42:36.119Z,2.80
2023-01-29T09:43:43.905Z,2.90
2023-01-29T09:44:49.772Z,2.90
2023-01-29T09:45:55.376Z,3.00
2023-01-29T09:47:01.409Z,3.10
2023-01-29T09:48:04.028Z,3.20
2023-01-29T09:49:08.547Z,3.30
2023-01-29T09:50:14.519Z,3.40
2023-01-29T09:51:25.826Z,3.50
2023-01-29T09:52:31.040Z,3.60
2023-01-29T09:53:37.657Z,3.60
2023-01-29T09:54:47.807Z,3.70
2023-01-29T09:55:51.323Z,3.70
2023-01-29T09:56:55.879Z,3.90
2023-01-29T09:57:59.360Z,4.00
2023-01-29T09:59:02.278Z,4.10
2023-01-29T10:00:05.709Z,4.10
2023-01-29T10:01:12.061Z,4.20
2023-01-29T10:02:23.078Z,4.30
2023-01-29T10:03:36.705Z,4.40
2023-01-29T10:04:45.463Z,4.50
2023-01-29T10:05:55.839Z,4.50
2023-01-29T10:07:06.834Z,4.50
2023-01-29T10:08:25.030Z,4.40
2023-01-29T10:09:37.426Z,4.30
2023-01-29T10:10:45.965Z,4.30
2023-01-29T10:11:56.318Z,4.30
2023-01-29T10:13:02.745Z,4.20
2023-01-29T10:14:12.469Z,4.20
2023-01-29T10:15:22.437Z,4.10
2023-01-29T10:16:31.472Z,4.10
2023-01-29T10:17:42.393Z,4.10
2023-01-29T10:18:50.789Z,4.10
2023-01-29T10:20:03.520Z,4.10
2023-01-29T10:21:14.582Z,4.10
2023-01-29T10:22:29.699Z,4.00
2023-01-29T10:23:34.704Z,4.10
2023-01-29T10:24:37.863Z,4.10
2023-01-29T10:25:41.796Z,4.10
2023-01-29T10:26:44.781Z,4.10
2023-01-29T10:27:48.610Z,4.10
2023-01-29T10:28:53.292Z,4.20
2023-01-29T10:29:57.119Z,4.30
2023-01-29T10:31:00.654Z,4.30
2023-01-29T10:32:05.893Z,4.50
2023-01-29T10:33:14.491Z,4.60
2023-01-29T10:34:22.079Z,4.80
2023-01-29T10:35:28.136Z,5.00
2023-01-29T10:36:34.591Z,5.20
2023-01-29T10:37:39.806Z,5.30
2023-01-29T10:38:44.389Z,5.40
2023-01-29T10:39:46.489Z,5.60
2023-01-29T10:40:52.329Z,5.70
2023-01-29T10:42:10.343Z,5.90
2023-01-29T10:43:14.895Z,6.00
2023-01-29T10:44:27.849Z,6.10
2023-01-29T10:45:34.760Z,6.20
2023-01-29T10:46:44.440Z,6.30
2023-01-29T10:47:56.306Z,6.40
2023-01-29T10:49:07.232Z,6.50
2023-01-29T10:50:17.071Z,6.60
2023-01-29T10:51:29.273Z,6.80
2023-01-29T10:52:36.252Z,7.00
2023-01-29T10:53:45.096Z,7.20
2023-01-29T10:54:53.443Z,7.40
2023-01-29T10:56:01.212Z,7.60
2023-01-29T10:57:11.127Z,7.60
2023-01-29T10:58:19.612Z,7.70
2023-01-29T10:59:33.901Z,7.80
2023-01-29T11:00:37.837Z,7.90
2023-01-29T11:01:40.995Z,8.10
2023-01-29T11:02:44.159Z,8.30
2023-01-29T11:03:47.293Z,8.50
2023-01-29T11:04:50.588Z,8.60
2023-01-29T11:05:57.112Z,8.80
2023-01-29T11:07:00.416Z,9.00
2023-01-29T11:08:05.163Z,9.10
2023-01-29T11:09:10.225Z,9.10
2023-01-29T11:10:15.728Z,9.10
2023-01-29T11:11:21.941Z,8.90
2023-01-29T11:12:30.265Z,8.90
2023-01-29T11:13:35.082Z,8.90
2023-01-29T11:14:41.859Z,8.90
2023-01-29T11:15:43.915Z,8.90
2023-01-29T11:16:47.887Z,8.80
2023-01-29T11:18:07.217Z,8.80
2023-01-29T11:19:10.502Z,8.70
2023-01-29T11:20:26.611Z,8.60
2023-01-29T11:21:30.276Z,8.40
2023-01-29T11:22:32.221Z,8.30
2023-01-29T11:23:35.116Z,8.30
2023-01-29T11:24:37.020Z,8.20
2023-01-29T11:25:40.073Z,8.20
2023-01-29T11:26:42.592Z,8.00
2023-01-29T11:27:46.731Z,8.00
2023-01-29T11:28:49.804Z,8.10
2023-01-29T11:29:53.239Z,8.10
2023-01-29T11:30:55.289Z,8.00
2023-01-29T11:31:58.710Z,7.80
2023-01-29T11:33:08.143Z,7.60
2023-01-29T11:34:16.074Z,7.60
2023-01-29T11:35:21.744Z,7.60
2023-01-29T11:36:32.746Z,7.60
2023-01-29T11:37:37.402Z,7.50
2023-01-29T11:38:40.507Z,7.40
2023-01-29T11:39:44.753Z,7.30
2023-01-29T11:40:47.722Z,7.20
2023-01-29T11:41:53.554Z,7.20
2023-01-29T11:42:55.401Z,7.10
2023-01-29T11:43:59.672Z,7.10
2023-01-29T11:45:02.645Z,7.10
2023-01-29T11:46:07.202Z,7.20
2023-01-29T11:47:13.267Z,7.30
2023-01-29T11:48:17.320Z,7.40
2023-01-29T11:49:23.755Z,7.60
2023-01-29T11:50:29.091Z,7.70
2023-01-29T11:51:32.006Z,7.70
2023-01-29T11:52:36.193Z,7.70
2023-01-29T11:53:40.693Z,7.70
2023-01-29T11:54:45.415Z,7.70
2023-01-29T11:55:50.740Z,7.50
2023-01-29T11:56:54.398Z,7.50
2023-01-29T11:58:00.991Z,7.50
2023-01-29T11:59:04.566Z,7.40
2023-01-29T12:00:08.823Z,7.40
2023-01-29T12:01:10.896Z,7.40
2023-01-29T12:02:26.630Z,7.30
2023-01-29T12:03:33.421Z,7.30
2023-01-29T12:04:38.650Z,7.40
2023-01-29T12:05:53.781Z,7.40
2023-01-29T12:06:56.740Z,7.40
2023-01-29T12:08:01.413Z,7.40
2023-01-29T12:09:09.017Z,7.30
2023-01-29T12:10:26.744Z,7.30
2023-01-29T12:11:30.650Z,7.30
2023-01-29T12:12:34.471Z,7.30
2023-01-29T12:13:39.033Z,7.20
2023-01-29T12:14:41.932Z,7.30
2023-01-29T12:15:44.965Z,7.30
2023-01-29T12:16:51.665Z,7.30
2023-01-29T12:17:59.349Z,7.30
2023-01-29T12:19:06.892Z,7.30
2023-01-29T12:20:12.751Z,7.30
2023-01-29T12:21:19.211Z,7.30
2023-01-29T12:22:22.363Z,7.30
2023-01-29T12:23:29.280Z,7.20
2023-01-29T12:24:34.209Z,7.30
2023-01-29T12:25:41.177Z,7.10
2023-01-29T12:26:46.755Z,7.10
2023-01-29T12:27:51.254Z,7.20
2023-01-29T12:28:56.453Z,7.30
2023-01-29T12:30:02.843Z,7.40
2023-01-29T12:31:23.465Z,7.50
2023-01-29T12:32:30.701Z,7.60
2023-01-29T12:33:38.088Z,7.70
2023-01-29T12:34:46.392Z,7.70
2023-01-29T12:35:54.855Z,7.70
2023-01-29T12:37:01.897Z,7.70
2023-01-29T12:38:08.077Z,7.70
2023-01-29T12:39:10.693Z,7.70
2023-01-29T12:40:15.458Z,7.60
2023-01-29T12:41:26.057Z,7.60
2023-01-29T12:42:29.336Z,7.50
2023-01-29T12:43:33.384Z,7.50
2023-01-29T12:44:42.336Z,7.40
2023-01-29T12:45:48.161Z,7.40
2023-01-29T12:46:53.540Z,7.30
2023-01-29T12:47:57.739Z,7.30
2023-01-29T12:49:01.925Z,7.10
2023-01-29T12:50:07.534Z,7.00
2023-01-29T12:51:10.639Z,7.00
2023-01-29T12:52:19.054Z,7.00
2023-01-29T12:53:25.590Z,6.90
2023-01-29T12:54:32.775Z,6.70
2023-01-29T12:55:39.041Z,6.70
2023-01-29T12:56:43.508Z,6.80
2023-01-29T12:57:48.406Z,6.80
2023-01-29T12:58:52.625Z,6.80
2023-01-29T12:59:57.667Z,6.80
2023-01-29T13:01:04.247Z,6.80
2023-01-29T13:02:12.594Z,6.90
2023-01-29T13:03:20.139Z,6.80
2023-01-29T13:04:29.128Z,6.90
2023-01-29T13:05:35.088Z,6.90
2023-01-29T13:06:41.838Z,7.00
2023-01-29T13:07:50.014Z,7.00
2023-01-29T13:08:53.812Z,6.80
2023-01-29T13:10:00.741Z,6.70
2023-01-29T13:11:04.529Z,6.70
2023-01-29T13:12:12.077Z,6.70
2023-01-29T13:13:15.955Z,6.60
2023-01-29T13:14:21.232Z,6.70
2023-01-29T13:15:26.292Z,6.70
2023-01-29T13:16:30.420Z,6.70
2023-01-29T13:17:37.014Z,6.70
2023-01-29T13:18:43.661Z,6.60
2023-01-29T13:19:47.667Z,6.70
2023-01-29T13:20:51.540Z,6.80
2023-01-29T13:21:53.977Z,6.90
2023-01-29T13:22:59.933Z,7.00
2023-01-29T13:24:04.243Z,7.10
2023-01-29T13:25:11.279Z,7.00
2023-01-29T13:26:14.191Z,7.10
2023-01-29T13:27:21.794Z,7.20
2023-01-29T13:28:26.390Z,7.30
2023-01-29T13:29:28.999Z,7.40
2023-01-29T13:30:32.993Z,7.40
2023-01-29T13:31:36.617Z,7.50
2023-01-29T13:32:39.570Z,7.50
2023-01-29T13:33:43.066Z,7.50
2023-01-29T13:34:47.422Z,7.50
2023-01-29T13:35:58.067Z,7.50
2023-01-29T13:37:02.577Z,7.50
2023-01-29T13:38:06.509Z,7.50
2023-01-29T13:39:16.749Z,7.60
2023-01-29T13:40:21.898Z,7.50
2023-01-29T13:41:31.154Z,7.40
2023-01-29T13:42:42.781Z,7.40
2023-01-29T13:43:49.065Z,7.30
2023-01-29T13:44:53.500Z,7.20
2023-01-29T13:45:56.420Z,7.20
2023-01-29T13:47:01.433Z,7.10
2023-01-29T13:48:10.271Z,7.10
2023-01-29T13:49:25.266Z,7.10
2023-01-29T13:50:31.715Z,7.00
2023-01-29T13:51:36.330Z,7.00
2023-01-29T13:52:42.960Z,7.00
2023-01-29T13:53:52.340Z,7.10
2023-01-29T13:54:57.784Z,7.10
2023-01-29T13:56:15.671Z,6.90
2023-01-29T13:57:33.555Z,7.00
2023-01-29T13:58:51.512Z,7.00
2023-01-29T13:59:56.379Z,6.90
2023-01-29T14:01:01.043Z,6.90
2023-01-29T14:02:04.523Z,6.80
2023-01-29T14:03:26.257Z,6.60
2023-01-29T14:04:30.996Z,6.60
2023-01-29T14:05:38.044Z,6.50
2023-01-29T14:06:43.378Z,6.30
2023-01-29T14:07:50.933Z,6.10
2023-01-29T14:08:54.147Z,5.90
2023-01-29T14:10:06.076Z,5.80
2023-01-29T14:11:27.540Z,5.70
2023-01-29T14:12:37.274Z,5.70
2023-01-29T14:13:41.913Z,5.60
2023-01-29T14:14:51.424Z,5.60
2023-01-29T14:16:09.320Z,5.50
2023-01-29T14:17:12.003Z,5.30
2023-01-29T14:18:20.144Z,5.30
2023-01-29T14:19:22.504Z,5.30
2023-01-29T14:20:32.340Z,5.40
2023-01-29T14:21:42.021Z,5.40
2023-01-29T14:22:43.997Z,5.40